createdAt,value
2023-06-13T00:00:19.006Z,21.50
2023-06-13T00:02:48.099Z,21.40
2023-06-13T00:05:18.429Z,21.40
2023-06-13T00:07:47.896Z,21.10
2023-06-13T00:10:17.016Z,21.40
2023-06-13T00:12:51.345Z,21.30
2023-06-13T00:15:21.412Z,21.30
2023-06-13T00:17:50.119Z,21.30
2023-06-13T00:20:22.973Z,21.20
2023-06-13T00:22:51.720Z,21.00
2023-06-13T00:25:20.664Z,20.90
2023-06-13T00:27:49.533Z,21.00
2023-06-13T00:30:18.666Z,21.00
2023-06-13T00:32:49.044Z,21.00
2023-06-13T00:35:19.237Z,20.90
2023-06-13T00:37:48.397Z,20.90
2023-06-13T00:40:20.144Z,20.80
2023-06-13T00:42:48.772Z,20.80
2023-06-13T00:45:25.695Z,20.80
2023-06-13T00:47:57.458Z,20.80
2023-06-13T00:50:29.018Z,20.70
2023-06-13T00:52:58.740Z,20.60
2023-06-13T00:55:29.621Z,20.50
2023-06-13T00:57:59.360Z,20.50
2023-06-13T01:00:28.691Z,20.50
2023-06-13T01:03:00.313Z,20.50
2023-06-13T01:05:29.713Z,20.50
2023-06-13T01:08:00.309Z,20.40
2023-06-13T01:10:30.593Z,20.30
2023-06-13T01:13:05.000Z,20.20
2023-06-13T01:15:38.159Z,20.20
2023-06-13T01:18:11.914Z,20.20
2023-06-13T01:20:41.058Z,20.10
2023-06-13T01:23:26.124Z,20.10
2023-06-13T01:26:05.265Z,20.10
2023-06-13T01:28:36.530Z,20.00
2023-06-13T01:31:09.028Z,19.90
2023-06-13T01:33:39.180Z,19.90
2023-06-13T01:36:08.683Z,19.90
2023-06-13T01:38:38.015Z,20.00
2023-06-13T01:41:07.068Z,20.00
2023-06-13T01:43:37.350Z,19.90
2023-06-13T01:46:12.327Z,19.80
2023-06-13T01:48:54.847Z,19.80
2023-06-13T01:51:30.774Z,19.80
2023-06-13T01:54:05.562Z,19.70
2023-06-13T01:56:36.888Z,19.70
2023-06-13T01:59:10.656Z,19.60
2023-06-13T02:01:43.643Z,19.60
2023-06-13T02:04:13.677Z,19.50
2023-06-13T02:06:42.301Z,19.60
2023-06-13T02:09:11.293Z,19.30
2023-06-13T02:11:40.340Z,19.40
2023-06-13T02:14:10.371Z,19.50
2023-06-13T02:16:41.270Z,19.50
2023-06-13T02:19:11.882Z,19.60
2023-06-13T02:21:41.616Z,19.40
2023-06-13T02:24:10.274Z,19.40
2023-06-13T02:26:41.289Z,19.50
2023-06-13T02:29:11.291Z,19.40
2023-06-13T02:31:40.534Z,19.40
2023-06-13T02:34:09.572Z,19.40
2023-06-13T02:36:38.771Z,19.40
2023-06-13T02:39:09.056Z,19.30
2023-06-13T02:41:38.061Z,19.30
2023-06-13T02:44:07.201Z,19.20
2023-06-13T02:46:37.708Z,19.10
2023-06-13T02:49:06.808Z,19.10
2023-06-13T02:51:35.384Z,19.00
2023-06-13T02:54:04.159Z,19.00
2023-06-13T02:56:32.859Z,19.10
2023-06-13T02:59:01.649Z,19.00
2023-06-13T03:01:34.226Z,19.00
2023-06-13T03:04:04.931Z,18.90
2023-06-13T03:06:33.653Z,18.90
2023-06-13T03:09:02.262Z,18.90
2023-06-13T03:11:31.080Z,18.90
2023-06-13T03:14:00.060Z,18.80
2023-06-13T03:16:29.935Z,18.80
2023-06-13T03:18:58.676Z,18.80
2023-06-13T03:21:28.759Z,18.80
2023-06-13T03:23:57.740Z,18.80
2023-06-13T03:26:26.652Z,18.90
2023-06-13T03:28:55.282Z,18.80
2023-06-13T03:31:24.364Z,18.80
2023-06-13T03:33:53.217Z,18.80
2023-06-13T03:36:21.964Z,18.80
2023-06-13T03:38:52.390Z,18.70
2023-06-13T03:41:20.992Z,18.70
2023-06-13T03:43:50.735Z,18.70
2023-06-13T03:46:19.382Z,18.80
2023-06-13T03:48:48.255Z,18.80
2023-06-13T03:51:16.976Z,18.80
2023-06-13T03:53:46.051Z,18.90
2023-06-13T03:56:16.250Z,18.80
2023-06-13T03:58:45.190Z,18.80
2023-06-13T04:01:13.941Z,18.70
2023-06-13T04:03:42.985Z,18.80
2023-06-13T04:06:11.803Z,18.70
2023-06-13T04:08:41.909Z,18.60
2023-06-13T04:11:10.642Z,18.50
2023-06-13T04:13:40.935Z,18.70
2023-06-13T04:16:09.635Z,19.00
2023-06-13T04:18:40.910Z,19.80
2023-06-13T04:21:09.904Z,20.60
2023-06-13T04:23:38.572Z,21.30
2023-06-13T04:26:07.321Z,21.70
2023-06-13T04:28:37.178Z,22.40
2023-06-13T04:31:10.104Z,22.90
2023-06-13T04:33:58.065Z,22.80
2023-06-13T04:36:30.081Z,23.50
2023-06-13T04:38:59.086Z,24.30
2023-06-13T04:41:29.997Z,24.40
2023-06-13T04:43:59.226Z,24.90
2023-06-13T04:46:29.930Z,25.00
2023-06-13T04:48:59.633Z,25.00
2023-06-13T04:51:28.369Z,25.10
2023-06-13T04:53:59.804Z,24.90
2023-06-13T04:56:29.203Z,24.80
2023-06-13T04:58:59.523Z,24.70
2023-06-13T05:01:34.436Z,24.70
2023-06-13T05:04:07.366Z,24.40
2023-06-13T05:07:18.041Z,24.70
2023-06-13T05:09:46.866Z,24.60
2023-06-13T05:12:15.909Z,24.50
2023-06-13T05:14:44.772Z,25.00
2023-06-13T05:17:16.063Z,25.30
2023-06-13T05:19:48.115Z,25.40
2023-06-13T05:22:16.950Z,25.70
2023-06-13T05:24:45.867Z,25.30
2023-06-13T05:27:15.790Z,25.60
2023-06-13T05:29:44.708Z,26.10
2023-06-13T05:32:16.223Z,26.60
2023-06-13T05:34:44.956Z,26.00
2023-06-13T05:37:14.245Z,25.80
2023-06-13T05:39:43.120Z,25.90
2023-06-13T05:42:12.050Z,26.40
2023-06-13T05:45:17.035Z,26.80
2023-06-13T05:47:48.047Z,27.30
2023-06-13T05:50:18.339Z,28.30
2023-06-13T05:52:47.253Z,27.70
2023-06-13T05:55:18.040Z,27.10
2023-06-13T05:57:48.129Z,26.60
2023-06-13T06:00:20.721Z,27.10
2023-06-13T06:02:52.197Z,27.60
2023-06-13T06:05:22.711Z,27.70
2023-06-13T06:07:51.685Z,27.70
2023-06-13T06:10:21.486Z,27.40
2023-06-13T06:12:50.653Z,26.60
2023-06-13T06:15:24.353Z,28.00
2023-06-13T06:17:54.950Z,28.90
2023-06-13T06:20:24.073Z,28.60
2023-06-13T06:22:56.682Z,29.10
2023-06-13T06:25:35.883Z,30.60
2023-06-13T06:28:05.040Z,31.80
2023-06-13T06:30:35.267Z,31.10
2023-06-13T06:33:05.892Z,29.40
2023-06-13T06:35:36.550Z,29.70
2023-06-13T06:38:05.663Z,29.00
2023-06-13T06:40:34.780Z,28.50
2023-06-13T06:43:10.592Z,28.80
2023-06-13T06:45:40.124Z,29.30
2023-06-13T06:48:13.430Z,30.00
2023-06-13T06:50:42.183Z,29.70
2023-06-13T06:53:11.121Z,30.00
2023-06-13T06:55:40.471Z,30.30
2023-06-13T06:58:09.313Z,30.30
2023-06-13T07:00:40.618Z,31.10
2023-06-13T07:03:11.026Z,31.00
2023-06-13T07:05:39.809Z,31.10
2023-06-13T07:08:09.134Z,31.90
2023-06-13T07:10:38.205Z,31.70
2023-06-13T07:13:07.325Z,30.90
2023-06-13T07:15:36.243Z,31.10
2023-06-13T07:18:05.996Z,31.80
2023-06-13T07:20:36.934Z,31.60
2023-06-13T07:23:05.974Z,31.60
2023-06-13T07:25:35.924Z,33.20
2023-06-13T07:28:05.534Z,33.40
2023-06-13T07:30:34.908Z,33.60
2023-06-13T07:33:06.199Z,33.10
2023-06-13T07:35:38.732Z,33.00
2023-06-13T07:38:08.174Z,33.60
2023-06-13T07:40:37.014Z,34.10
2023-06-13T07:43:05.675Z,33.30
2023-06-13T07:45:34.513Z,32.80
2023-06-13T07:48:06.066Z,33.80
2023-06-13T07:50:37.193Z,32.10
2023-06-13T07:53:06.434Z,32.50
2023-06-13T07:55:35.451Z,33.20
2023-06-13T07:58:10.052Z,33.00
2023-06-13T08:00:39.826Z,33.90
2023-06-13T08:03:12.633Z,33.60
2023-06-13T08:05:43.195Z,34.30
2023-06-13T08:08:13.958Z,33.70
2023-06-13T08:11:43.902Z,33.30
2023-06-13T08:14:14.445Z,34.70
2023-06-13T08:16:44.537Z,35.30
2023-06-13T08:19:15.391Z,35.60
2023-06-13T08:21:46.909Z,36.10
2023-06-13T08:24:17.730Z,35.40
2023-06-13T08:26:47.460Z,35.30
2023-06-13T08:29:18.314Z,35.50
2023-06-13T08:31:50.305Z,35.80
2023-06-13T08:34:19.348Z,35.50
2023-06-13T08:36:50.768Z,35.00
2023-06-13T08:39:23.989Z,35.40
2023-06-13T08:41:53.843Z,35.70
2023-06-13T08:44:23.904Z,35.70
2023-06-13T08:46:55.756Z,36.50
2023-06-13T08:49:28.026Z,36.60
2023-06-13T08:52:01.786Z,36.20
2023-06-13T08:54:34.202Z,34.80
2023-06-13T08:57:13.195Z,35.40
2023-06-13T08:59:47.038Z,36.50
2023-06-13T09:02:23.572Z,36.80
2023-06-13T09:05:01.636Z,37.20
2023-06-13T09:07:34.639Z,37.70
2023-06-13T09:13:42.931Z,36.00
2023-06-13T09:19:18.800Z,36.70
2023-06-13T09:22:12.558Z,34.80
2023-06-13T09:25:27.527Z,35.30
2023-06-13T09:28:55.366Z,36.20
2023-06-13T09:31:49.104Z,36.20
2023-06-13T09:34:35.171Z,36.40
2023-06-13T09:37:31.786Z,36.20
2023-06-13T09:40:25.832Z,36.00
2023-06-13T09:43:09.412Z,35.00
2023-06-13T09:45:59.178Z,35.00
2023-06-13T09:51:41.935Z,35.40
2023-06-13T09:54:11.882Z,35.30
2023-06-13T09:57:12.676Z,33.50
2023-06-13T10:00:18.019Z,32.30
2023-06-13T10:03:20.289Z,31.00
2023-06-13T10:06:01.863Z,31.30
2023-06-13T10:08:51.029Z,30.70
2023-06-13T10:11:49.683Z,31.00
2023-06-13T10:14:49.159Z,30.10
2023-06-13T10:18:18.493Z,30.60
2023-06-13T10:21:16.558Z,31.80
2023-06-13T10:24:26.696Z,30.40
2023-06-13T10:27:36.113Z,30.70
2023-06-13T10:31:07.718Z,29.50
2023-06-13T10:34:33.946Z,30.00
2023-06-13T10:37:48.506Z,30.90
2023-06-13T10:41:24.802Z,30.60
2023-06-13T10:44:12.575Z,30.90
2023-06-13T10:54:19.743Z,31.20
2023-06-13T10:57:47.307Z,30.60
2023-06-13T11:07:43.787Z,30.00
2023-06-13T11:18:42.281Z,31.00
2023-06-13T11:24:36.181Z,31.60
2023-06-13T11:27:20.418Z,31.70
2023-06-13T11:33:32.670Z,30.70
2023-06-13T11:43:14.862Z,30.70
2023-06-13T11:52:22.921Z,30.40
2023-06-13T11:54:56.630Z,30.20
2023-06-13T11:58:00.798Z,30.30
2023-06-13T12:01:26.799Z,30.50
2023-06-13T12:04:14.420Z,30.70
2023-06-13T12:07:21.670Z,30.90
2023-06-13T12:24:46.201Z,29.40
2023-06-13T12:27:25.859Z,28.90
2023-06-13T12:33:14.410Z,29.80
2023-06-13T12:36:09.140Z,29.10
2023-06-13T12:38:40.402Z,28.70
2023-06-13T12:41:22.501Z,29.00
2023-06-13T12:43:55.368Z,28.90
2023-06-13T12:46:25.412Z,29.20
2023-06-13T12:49:00.851Z,29.50
2023-06-13T12:51:45.623Z,29.40
2023-06-13T12:54:27.797Z,29.70
2023-06-13T12:57:10.809Z,29.30
2023-06-13T12:59:54.448Z,29.40
2023-06-13T13:02:29.053Z,29.40
2023-06-13T13:05:15.930Z,29.70
2023-06-13T13:07:56.235Z,29.70
2023-06-13T13:10:40.240Z,29.00
2023-06-13T13:16:02.219Z,28.50
2023-06-13T13:18:36.710Z,28.30
2023-06-13T13:21:06.295Z,27.80
2023-06-13T13:23:40.446Z,27.90
2023-06-13T13:26:12.444Z,27.90
2023-06-13T13:28:48.844Z,27.80
2023-06-13T13:31:27.640Z,27.80
2023-06-13T13:36:43.828Z,28.20
2023-06-13T13:39:27.828Z,28.10
2023-06-13T13:42:22.062Z,28.40
2023-06-13T13:45:21.394Z,28.20
2023-06-13T13:47:52.305Z,27.90
2023-06-13T13:50:34.826Z,28.50
2023-06-13T13:53:32.441Z,28.60
2023-06-13T13:56:04.101Z,28.60
2023-06-13T13:58:40.411Z,28.60
2023-06-13T14:11:08.576Z,28.10
2023-06-13T14:17:03.226Z,28.00
2023-06-13T14:23:07.240Z,27.90
2023-06-13T14:49:52.774Z,28.00
2023-06-13T14:52:27.624Z,28.00
2023-06-13T14:55:10.215Z,27.80
2023-06-13T14:57:47.327Z,27.80
2023-06-13T15:00:47.853Z,28.00
2023-06-13T15:09:25.195Z,27.90
2023-06-13T15:15:03.296Z,27.90
2023-06-13T15:17:47.230Z,28.10
2023-06-13T15:20:22.395Z,28.10
2023-06-13T15:22:57.187Z,27.90
2023-06-13T15:25:44.863Z,28.00
2023-06-13T15:28:52.953Z,27.90
2023-06-13T15:31:35.106Z,28.00
2023-06-13T15:34:06.406Z,27.80
2023-06-13T15:36:51.487Z,27.70
2023-06-13T15:42:20.392Z,27.80
2023-06-13T15:45:04.841Z,27.60
2023-06-13T15:51:03.236Z,27.70
2023-06-13T15:53:38.378Z,27.80
2023-06-13T15:56:11.515Z,27.80
2023-06-13T15:58:43.469Z,28.00
2023-06-13T16:01:18.758Z,28.10
2023-06-13T16:04:07.221Z,28.10
2023-06-13T16:06:38.590Z,28.30
2023-06-13T16:09:12.275Z,27.80
2023-06-13T16:11:46.203Z,27.70
2023-06-13T16:14:23.343Z,27.50
2023-06-13T16:16:59.280Z,27.60
2023-06-13T16:19:39.004Z,27.70
2023-06-13T16:28:02.038Z,27.80
2023-06-13T16:30:32.379Z,27.80
2023-06-13T16:33:13.811Z,27.70
2023-06-13T16:38:43.820Z,27.70
2023-06-13T16:41:14.714Z,27.70
2023-06-13T16:46:57.107Z,27.80
2023-06-13T16:49:40.638Z,27.80
2023-06-13T16:52:24.902Z,27.80
2023-06-13T16:55:02.649Z,27.70
2023-06-13T17:00:29.500Z,27.60
2023-06-13T17:03:25.220Z,27.40
2023-06-13T17:09:11.399Z,27.40
2023-06-13T17:11:42.001Z,27.40
2023-06-13T17:17:11.740Z,27.40
2023-06-13T17:19:43.799Z,27.30
2023-06-13T17:22:13.109Z,27.30
2023-06-13T17:24:48.524Z,27.30
2023-06-13T17:27:17.421Z,27.40
2023-06-13T17:29:54.395Z,27.40
2023-06-13T17:32:25.080Z,27.30
2023-06-13T17:34:56.442Z,27.30
2023-06-13T17:37:25.658Z,27.10
2023-06-13T17:39:59.422Z,27.00
2023-06-13T17:45:48.530Z,27.00
2023-06-13T17:48:35.363Z,27.20
2023-06-13T17:51:06.192Z,26.80
2023-06-13T17:53:50.423Z,26.80
2023-06-13T17:56:33.271Z,26.80
2023-06-13T18:02:42.293Z,27.00
2023-06-13T18:05:51.616Z,26.80
2023-06-13T18:08:26.949Z,26.80
2023-06-13T18:10:59.551Z,26.70
2023-06-13T18:13:42.776Z,26.70
2023-06-13T18:16:30.609Z,26.70
2023-06-13T18:19:00.691Z,26.70
2023-06-13T18:21:41.304Z,26.40
2023-06-13T18:24:13.622Z,26.60
2023-06-13T18:26:58.628Z,26.60
2023-06-13T18:40:05.389Z,26.60
2023-06-13T18:43:04.887Z,26.50
2023-06-13T18:49:28.406Z,26.50
2023-06-13T18:56:33.619Z,26.70
2023-06-13T19:06:12.301Z,26.00
2023-06-13T19:09:30.558Z,26.00
2023-06-13T19:13:05.977Z,25.90
2023-06-13T19:16:21.168Z,25.80
2023-06-13T19:22:57.547Z,25.40
2023-06-13T19:25:34.181Z,25.10
2023-06-13T19:28:19.871Z,25.20
2023-06-13T19:31:41.756Z,25.30
2023-06-13T19:34:38.461Z,25.10
2023-06-13T19:37:09.618Z,25.20
2023-06-13T19:39:51.525Z,25.10
2023-06-13T19:42:21.340Z,24.40
2023-06-13T19:44:56.077Z,25.00
2023-06-13T19:47:46.457Z,24.90
2023-06-13T19:50:18.272Z,24.80
2023-06-13T19:52:48.026Z,25.10
2023-06-13T19:55:22.598Z,24.80
2023-06-13T19:57:56.498Z,24.80
2023-06-13T20:00:26.469Z,24.70
2023-06-13T20:02:57.477Z,24.70
2023-06-13T20:05:28.493Z,24.60
2023-06-13T20:08:02.484Z,24.50
2023-06-13T20:10:40.999Z,24.40
2023-06-13T20:13:10.402Z,24.40
2023-06-13T20:15:43.395Z,24.30
2023-06-13T20:18:13.224Z,24.20
2023-06-13T20:20:43.104Z,24.20
2023-06-13T20:23:13.251Z,24.20
2023-06-13T20:25:53.233Z,24.10
2023-06-13T20:28:23.976Z,24.10
2023-06-13T20:30:55.529Z,24.20
2023-06-13T20:33:26.517Z,24.00
2023-06-13T20:35:56.478Z,23.90
2023-06-13T20:38:27.597Z,23.90
2023-06-13T20:41:08.940Z,23.80
2023-06-13T20:43:40.436Z,23.80
2023-06-13T20:49:02.882Z,23.70
2023-06-13T20:51:51.973Z,23.60
2023-06-13T20:54:54.080Z,23.50
2023-06-13T20:57:28.863Z,23.50
2023-06-13T21:00:13.732Z,23.40
2023-06-13T21:03:00.039Z,23.40
2023-06-13T21:05:44.965Z,23.10
2023-06-13T21:08:18.537Z,23.20
2023-06-13T21:10:54.164Z,23.10
2023-06-13T21:13:32.274Z,22.90
2023-06-13T21:19:03.114Z,23.30
2023-06-13T21:21:37.203Z,23.00
2023-06-13T21:24:34.809Z,22.90
2023-06-13T21:27:44.594Z,22.90
2023-06-13T21:30:58.130Z,22.90
2023-06-13T21:33:34.557Z,22.80
2023-06-13T21:36:09.248Z,22.80
2023-06-13T21:38:38.722Z,23.10
2023-06-13T21:41:33.340Z,22.80
2023-06-13T21:44:06.174Z,22.60
2023-06-13T21:46:37.978Z,22.70
2023-06-13T21:49:26.948Z,22.60
2023-06-13T21:52:08.848Z,22.60
2023-06-13T21:54:38.640Z,22.80
2023-06-13T22:00:20.973Z,22.50
2023-06-13T22:03:03.876Z,22.50
2023-06-13T22:05:34.944Z,22.20
2023-06-13T22:08:18.859Z,22.30
2023-06-13T22:10:48.559Z,22.30
2023-06-13T22:13:18.420Z,22.20
2023-06-13T22:15:54.301Z,22.20
2023-06-13T22:18:29.116Z,22.30
2023-06-13T22:21:00.112Z,22.70
2023-06-13T22:23:32.047Z,22.20
2023-06-13T22:26:01.975Z,22.10
2023-06-13T22:28:39.822Z,22.10
2023-06-13T22:31:11.083Z,22.00
2023-06-13T22:33:42.351Z,21.90
2023-06-13T22:36:12.327Z,21.80
2023-06-13T22:38:41.391Z,21.90
2023-06-13T22:41:14.854Z,21.80
2023-06-13T22:43:44.491Z,22.10
2023-06-13T22:46:13.962Z,21.70
2023-06-13T22:48:46.356Z,21.70
2023-06-13T22:51:18.310Z,21.70
2023-06-13T22:53:50.263Z,21.60
2023-06-13T22:56:20.490Z,21.60
2023-06-13T22:58:50.090Z,21.70
2023-06-13T23:01:21.714Z,21.40
2023-06-13T23:03:53.781Z,21.40
2023-06-13T23:06:24.767Z,21.40
2023-06-13T23:08:56.926Z,21.40
2023-06-13T23:14:02.330Z,21.30
2023-06-13T23:16:39.604Z,21.60
2023-06-13T23:19:12.162Z,21.20
2023-06-13T23:21:44.140Z,21.20
2023-06-13T23:24:16.497Z,21.20
2023-06-13T23:26:47.352Z,21.00
2023-06-13T23:29:21.392Z,21.10
2023-06-13T23:31:51.533Z,21.30
2023-06-13T23:34:33.221Z,21.10
2023-06-13T23:37:09.255Z,20.90
2023-06-13T23:39:42.839Z,21.10
2023-06-13T23:42:15.851Z,21.00
2023-06-13T23:44:45.627Z,20.90
2023-06-13T23:47:14.663Z,20.90
2023-06-13T23:49:45.713Z,20.80
2023-06-13T23:52:18.964Z,20.70
2023-06-13T23:54:47.998Z,20.60
2023-06-13T23:57:19.791Z,20.60
2023-06-13T23:59:48.934Z,20.50
